Time;durP1;ratioP1;P1;durP2;ratioP2;P2;SDS_P1;SDS_P2;PMS_P1;PMS_P2;Temp;Humidity;BMP_temperature;BMP_pressure;BME280_temperature;BME280_humidity;BME280_pressure;Samples;Min_cycle;Max_cycle;Signal;HPM_P1;HPM_P2
2023/03/04 00:01:50;;;;;;;67.78;33.25;;;3.30;99.90;;;;;;5014117;28;20043;-79
2023/03/04 00:04:17;;;;;;;72.05;34.88;;;3.40;99.90;;;;;;5017081;28;20054;-80
2023/03/04 00:06:44;;;;;;;71.32;36.67;;;3.40;99.90;;;;;;5019323;28;20106;-79
2023/03/04 00:09:10;;;;;;;65.65;33.38;;;3.30;99.90;;;;;;5006131;28;20058;-79
2023/03/04 00:11:37;;;;;;;56.33;31.23;;;3.30;99.90;;;;;;5012966;28;20048;-80
2023/03/04 00:14:04;;;;;;;66.35;33.50;;;3.30;99.90;;;;;;5000352;28;20086;-81
2023/03/04 00:16:30;;;;;;;66.13;33.15;;;3.30;99.90;;;;;;5008854;28;20061;-80
2023/03/04 00:18:57;;;;;;;71.45;35.20;;;3.30;99.90;;;;;;5005072;28;20042;-79
2023/03/04 00:21:24;;;;;;;70.25;35.88;;;3.30;99.90;;;;;;5019980;28;20230;-79
2023/03/04 00:23:51;;;;;;;70.32;35.38;;;3.20;99.90;;;;;;5010222;28;20121;-79
2023/03/04 00:26:17;;;;;;;74.43;35.30;;;3.20;99.90;;;;;;5012278;28;20427;-80
2023/03/04 00:28:44;;;;;;;68.55;34.72;;;3.20;99.90;;;;;;5013855;28;20052;-80
2023/03/04 00:31:11;;;;;;;75.18;35.78;;;3.20;99.90;;;;;;5005578;28;20133;-80
2023/03/04 00:33:39;;;;;;;65.88;33.75;;;3.10;99.90;;;;;;5006225;28;20425;-79
2023/03/04 00:36:06;;;;;;;68.40;34.30;;;3.10;99.90;;;;;;5005014;28;20050;-79
2023/03/04 00:38:32;;;;;;;63.10;33.75;;;3.10;99.90;;;;;;5009221;28;20042;-81
2023/03/04 00:40:59;;;;;;;66.07;31.27;;;3.10;99.90;;;;;;5002204;28;20050;-81
2023/03/04 00:43:26;;;;;;;58.53;31.75;;;3.10;99.90;;;;;;5005224;28;20090;-81
2023/03/04 00:45:52;;;;;;;58.72;31.33;;;3.10;99.90;;;;;;5002121;28;20046;-81
2023/03/04 00:48:19;;;;;;;64.57;33.33;;;3.10;99.90;;;;;;5017807;28;20054;-81
2023/03/04 00:50:46;;;;;;;63.95;31.73;;;3.10;99.90;;;;;;5001496;28;20437;-81
2023/03/04 00:53:12;;;;;;;70.30;33.33;;;3.00;99.90;;;;;;5004994;28;20412;-82
2023/03/04 00:55:39;;;;;;;67.82;32.70;;;3.00;99.90;;;;;;5006024;28;20238;-81
2023/03/04 00:58:06;;;;;;;62.72;32.78;;;3.00;99.90;;;;;;5005791;28;20510;-81
2023/03/04 01:00:32;;;;;;;67.07;34.30;;;3.00;99.90;;;;;;5003084;28;20038;-82
2023/03/04 01:02:59;;;;;;;69.13;32.85;;;3.00;99.90;;;;;;5008273;28;20056;-79
2023/03/04 01:05:26;;;;;;;65.55;33.72;;;3.00;99.90;;;;;;5013685;28;20056;-78
2023/03/04 01:07:52;;;;;;;60.25;32.33;;;3.00;99.90;;;;;;5005079;28;20516;-81
2023/03/04 01:10:19;;;;;;;68.47;34.22;;;3.00;99.90;;;;;;5024768;28;20054;-80
2023/03/04 01:12:46;;;;;;;68.50;34.30;;;2.90;99.90;;;;;;5014549;28;20062;-79
2023/03/04 01:15:13;;;;;;;74.32;36.45;;;2.90;99.90;;;;;;5011955;28;20045;-79
2023/03/04 01:17:40;;;;;;;69.65;33.78;;;2.90;99.90;;;;;;5011374;28;20045;-80
2023/03/04 01:20:08;;;;;;;65.65;34.63;;;2.90;99.90;;;;;;5008841;28;20512;-80
2023/03/04 01:22:35;;;;;;;73.55;31.98;;;2.90;99.90;;;;;;5011152;28;20042;-79
2023/03/04 01:25:02;;;;;;;62.63;32.80;;;2.90;99.90;;;;;;5011377;28;20057;-80
2023/03/04 01:27:28;;;;;;;66.07;32.80;;;2.80;99.90;;;;;;5009955;28;20050;-80
2023/03/04 01:29:55;;;;;;;64.80;33.60;;;2.80;99.90;;;;;;5005579;28;20054;-80
2023/03/04 01:32:22;;;;;;;65.20;32.40;;;2.80;99.90;;;;;;5008424;28;20051;-80
2023/03/04 01:34:48;;;;;;;65.85;33.10;;;2.80;99.90;;;;;;5010083;28;20050;-80
2023/03/04 01:37:15;;;;;;;65.40;32.17;;;2.70;99.90;;;;;;5007999;28;20041;-79
2023/03/04 01:39:42;;;;;;;65.82;32.85;;;2.70;99.90;;;;;;5017437;28;20046;-80
2023/03/04 01:42:20;;;;;;;64.85;33.15;;;2.70;99.90;;;;;;5023910;28;20057;-80
2023/03/04 01:44:48;;;;;;;64.20;32.20;;;2.70;99.90;;;;;;5013985;28;20419;-79
2023/03/04 01:47:16;;;;;;;71.13;33.45;;;2.70;99.90;;;;;;5026498;28;20049;-81
2023/03/04 01:49:42;;;;;;;65.47;34.13;;;2.70;99.90;;;;;;5008824;28;20047;-82
2023/03/04 01:52:13;;;;;;;67.40;32.97;;;2.70;99.90;;;;;;5025736;28;20046;-82
2023/03/04 01:54:40;;;;;;;59.42;31.88;;;2.70;99.90;;;;;;5025713;28;20038;-81
2023/03/04 01:57:19;;;;;;;64.70;31.88;;;2.70;99.90;;;;;;5011547;28;20046;-79
2023/03/04 01:59:47;;;;;;;62.63;31.73;;;2.70;99.90;;;;;;5009023;28;20049;-80
2023/03/04 02:02:13;;;;;;;63.00;32.25;;;2.60;99.90;;;;;;5006126;28;20042;-80
2023/03/04 02:04:41;;;;;;;66.38;32.58;;;2.60;99.90;;;;;;5009266;28;20072;-79
2023/03/04 02:07:08;;;;;;;69.90;34.47;;;2.60;99.90;;;;;;5023206;28;20064;-79
2023/03/04 02:09:35;;;;;;;70.32;34.85;;;2.60;99.90;;;;;;5012699;28;20416;-79
2023/03/04 02:12:02;;;;;;;64.00;32.80;;;2.60;99.90;;;;;;5022497;28;20054;-80
2023/03/04 02:14:30;;;;;;;68.38;34.38;;;2.60;99.90;;;;;;5009899;28;20050;-79
2023/03/04 02:16:56;;;;;;;73.05;33.75;;;2.60;99.90;;;;;;5003387;28;20050;-80
2023/03/04 02:19:41;;;;;;;70.00;33.35;;;2.60;99.90;;;;;;5008151;28;20528;-80
2023/03/04 02:22:07;;;;;;;62.67;34.10;;;2.60;99.90;;;;;;5021267;28;20038;-78
2023/03/04 02:24:42;;;;;;;65.40;33.50;;;2.50;99.90;;;;;;5035950;28;20090;-80
2023/03/04 02:27:09;;;;;;;63.38;32.42;;;2.50;99.90;;;;;;5033001;28;20034;-79
2023/03/04 02:29:36;;;;;;;67.68;34.15;;;2.50;99.90;;;;;;5036343;28;20026;-78
2023/03/04 02:32:02;;;;;;;64.03;32.25;;;2.50;99.90;;;;;;5035371;28;20412;-82
2023/03/04 02:34:32;;;;;;;71.70;33.70;;;2.40;99.90;;;;;;5015851;28;20045;-82
2023/03/04 02:37:01;;;;;;;69.38;32.58;;;2.40;99.90;;;;;;5013138;28;20057;-79
2023/03/04 02:39:35;;;;;;;56.28;29.92;;;2.40;99.90;;;;;;5011927;28;20173;-79
2023/03/04 02:42:02;;;;;;;69.93;32.85;;;2.40;99.90;;;;;;5014010;28;20042;-79
2023/03/04 02:44:31;;;;;;;58.60;30.45;;;2.40;99.90;;;;;;5005328;28;20391;-80
2023/03/04 02:46:58;;;;;;;65.53;32.35;;;2.40;99.90;;;;;;5009446;28;20106;-78
2023/03/04 02:49:27;;;;;;;67.72;33.13;;;2.40;99.90;;;;;;5003803;28;20052;-80
2023/03/04 02:52:19;;;;;;;68.88;33.45;;;2.40;99.90;;;;;;5012090;28;20050;-80
2023/03/04 02:54:46;;;;;;;67.82;32.97;;;2.30;99.90;;;;;;5001860;28;20494;-80
2023/03/04 02:57:13;;;;;;;60.10;31.65;;;2.30;99.90;;;;;;5012109;28;20046;-78
2023/03/04 02:59:41;;;;;;;64.57;31.10;;;2.30;99.90;;;;;;5010651;28;20064;-80
2023/03/04 03:02:09;;;;;;;59.28;30.17;;;2.30;99.90;;;;;;5011474;28;20056;-80
2023/03/04 03:04:38;;;;;;;62.80;31.35;;;2.30;99.90;;;;;;4999568;28;20424;-80
2023/03/04 03:07:04;;;;;;;68.10;32.28;;;2.30;99.90;;;;;;5006818;28;20047;-80
2023/03/04 03:09:31;;;;;;;66.65;31.20;;;2.30;99.90;;;;;;5001863;28;20054;-80
2023/03/04 03:11:58;;;;;;;64.13;31.40;;;2.30;99.90;;;;;;5007730;28;20061;-79
2023/03/04 03:14:24;;;;;;;61.33;32.00;;;2.20;99.90;;;;;;5012067;28;20046;-80
2023/03/04 03:16:51;;;;;;;64.63;29.92;;;2.20;99.90;;;;;;5006698;28;20057;-79
2023/03/04 03:19:18;;;;;;;60.15;30.85;;;2.20;99.90;;;;;;5010806;28;20061;-80
2023/03/04 03:21:44;;;;;;;61.35;31.25;;;2.20;99.90;;;;;;5002689;28;20042;-79
2023/03/04 03:24:11;;;;;;;62.92;31.13;;;2.20;99.90;;;;;;5010941;28;20132;-80
2023/03/04 03:26:38;;;;;;;60.33;30.85;;;2.10;99.90;;;;;;5006320;28;20073;-79
2023/03/04 03:29:05;;;;;;;65.40;32.92;;;2.10;99.90;;;;;;5024044;28;20068;-79
2023/03/04 03:31:32;;;;;;;67.32;32.78;;;2.10;99.90;;;;;;5011163;28;20557;-80
2023/03/04 03:33:58;;;;;;;64.47;33.42;;;2.10;99.90;;;;;;5018819;28;20062;-80
2023/03/04 03:36:25;;;;;;;66.63;32.60;;;2.10;99.90;;;;;;5012798;28;20057;-78
2023/03/04 03:38:52;;;;;;;65.38;33.08;;;2.10;99.90;;;;;;5017733;28;20042;-79
2023/03/04 03:41:18;;;;;;;61.92;31.70;;;2.00;99.90;;;;;;5001086;28;20058;-80
2023/03/04 03:43:45;;;;;;;60.63;31.30;;;2.00;99.90;;;;;;5005796;28;20046;-80
2023/03/04 03:46:12;;;;;;;63.22;32.53;;;2.00;99.90;;;;;;5006080;28;20042;-79
2023/03/04 03:48:38;;;;;;;66.75;31.95;;;2.00;99.90;;;;;;5011561;28;20430;-80
2023/03/04 03:51:05;;;;;;;63.25;32.72;;;2.00;99.90;;;;;;5001391;28;20054;-80
2023/03/04 03:53:32;;;;;;;66.35;30.80;;;2.00;99.90;;;;;;5004391;28;20047;-80
2023/03/04 03:55:58;;;;;;;61.97;31.98;;;2.00;99.90;;;;;;5005149;28;20560;-80
2023/03/04 03:58:25;;;;;;;66.00;32.45;;;2.00;99.90;;;;;;5005132;28;20523;-79
2023/03/04 04:00:52;;;;;;;66.22;31.98;;;1.90;99.90;;;;;;5008820;28;20065;-80
2023/03/04 04:03:20;;;;;;;68.22;32.35;;;1.90;99.90;;;;;;5022100;28;20054;-80
2023/03/04 04:05:47;;;;;;;60.10;31.13;;;1.90;99.90;;;;;;5010474;28;20045;-79
2023/03/04 04:08:16;;;;;;;57.78;30.77;;;1.80;99.90;;;;;;5006734;28;20054;-79
2023/03/04 04:10:43;;;;;;;57.30;28.90;;;1.80;99.90;;;;;;5024642;28;20521;-80
2023/03/04 04:13:10;;;;;;;63.58;30.40;;;1.80;99.90;;;;;;5022491;28;20077;-79
2023/03/04 04:15:37;;;;;;;58.83;29.98;;;1.80;99.90;;;;;;5006566;28;20041;-80
2023/03/04 04:18:05;;;;;;;58.47;30.23;;;1.80;99.90;;;;;;5023914;28;20050;-80
2023/03/04 04:20:33;;;;;;;62.08;31.55;;;1.70;99.90;;;;;;5005765;28;20533;-80
2023/03/04 04:23:00;;;;;;;67.95;30.77;;;1.70;99.90;;;;;;5007299;28;20101;-80
2023/03/04 04:25:28;;;;;;;61.83;31.40;;;1.70;99.90;;;;;;5026597;28;20130;-80
2023/03/04 04:27:54;;;;;;;64.65;31.75;;;1.70;99.90;;;;;;5006594;28;20057;-79
2023/03/04 04:30:21;;;;;;;64.38;31.13;;;1.70;99.90;;;;;;5009749;28;20514;-80
2023/03/04 04:32:47;;;;;;;68.00;32.10;;;1.70;99.90;;;;;;5015693;28;20489;-80
2023/03/04 04:35:14;;;;;;;63.72;31.52;;;1.60;99.90;;;;;;5015712;28;20553;-80
2023/03/04 04:37:41;;;;;;;61.33;32.60;;;1.70;99.90;;;;;;5012745;28;20042;-79
2023/03/04 04:40:08;;;;;;;62.00;30.30;;;1.60;99.90;;;;;;4999268;28;20046;-80
2023/03/04 04:42:35;;;;;;;62.15;30.92;;;1.60;99.90;;;;;;5008410;28;20045;-80
2023/03/04 04:45:02;;;;;;;62.72;31.50;;;1.60;99.90;;;;;;4999086;28;20061;-79
2023/03/04 04:47:29;;;;;;;58.78;30.40;;;1.60;99.90;;;;;;5009506;28;20050;-79
2023/03/04 04:49:58;;;;;;;64.45;30.98;;;1.60;99.90;;;;;;5012709;28;20076;-79
2023/03/04 04:52:24;;;;;;;61.75;29.25;;;1.60;99.90;;;;;;5007804;28;20052;-80
2023/03/04 04:54:51;;;;;;;62.20;30.65;;;1.60;99.90;;;;;;5010198;28;20042;-80
2023/03/04 04:57:18;;;;;;;59.90;29.35;;;1.60;99.90;;;;;;5019940;28;20046;-80
2023/03/04 04:59:44;;;;;;;59.60;30.83;;;1.60;99.90;;;;;;5008114;28;20042;-80
2023/03/04 05:02:11;;;;;;;61.50;30.15;;;1.50;99.90;;;;;;5004651;28;20109;-80
2023/03/04 05:04:38;;;;;;;59.92;30.98;;;1.50;99.90;;;;;;5010941;28;20042;-80
2023/03/04 05:07:04;;;;;;;61.58;30.30;;;1.50;99.90;;;;;;5001197;28;20441;-80
2023/03/04 05:09:31;;;;;;;60.33;29.52;;;1.50;99.90;;;;;;5002669;28;20058;-80
2023/03/04 05:11:58;;;;;;;63.33;29.33;;;1.50;99.90;;;;;;5016280;28;20050;-80
2023/03/04 05:14:24;;;;;;;60.03;29.73;;;1.50;99.90;;;;;;5005342;28;20061;-79
2023/03/04 05:16:51;;;;;;;60.67;31.67;;;1.50;99.90;;;;;;5005458;28;20046;-80
2023/03/04 05:19:19;;;;;;;60.00;30.20;;;1.50;99.90;;;;;;5011126;28;20049;-80
2023/03/04 05:21:46;;;;;;;65.55;31.50;;;1.50;99.90;;;;;;5006762;28;20133;-80
2023/03/04 05:24:13;;;;;;;65.40;32.28;;;1.50;99.90;;;;;;5013987;28;20136;-80
2023/03/04 05:26:40;;;;;;;58.72;29.75;;;1.50;99.90;;;;;;5017432;28;20530;-80
2023/03/04 05:29:06;;;;;;;56.47;29.17;;;1.40;99.90;;;;;;5008642;28;20050;-79
2023/03/04 05:31:33;;;;;;;57.08;28.58;;;1.40;99.90;;;;;;5022547;28;20085;-79
2023/03/04 05:34:00;;;;;;;61.25;30.27;;;1.40;99.90;;;;;;5009313;28;20050;-80
2023/03/04 05:36:27;;;;;;;61.38;30.75;;;1.40;99.90;;;;;;5009397;28;20052;-79
2023/03/04 05:38:53;;;;;;;59.47;29.65;;;1.40;99.90;;;;;;5012872;28;20050;-80
2023/03/04 05:41:21;;;;;;;65.57;31.33;;;1.30;99.90;;;;;;5008258;28;20052;-80
2023/03/04 05:43:49;;;;;;;60.63;31.35;;;1.30;99.90;;;;;;5007696;28;20057;-79
2023/03/04 05:46:17;;;;;;;67.07;31.90;;;1.30;99.90;;;;;;5005947;28;20060;-80
2023/03/04 05:48:44;;;;;;;59.73;32.20;;;1.30;99.90;;;;;;5011543;28;20049;-80
2023/03/04 05:51:11;;;;;;;57.92;30.70;;;1.30;99.90;;;;;;5003460;28;20050;-78
2023/03/04 05:53:39;;;;;;;64.03;30.80;;;1.30;99.90;;;;;;5021363;28;20042;-80
2023/03/04 05:56:10;;;;;;;60.92;31.45;;;1.30;99.90;;;;;;5011660;28;20429;-78
2023/03/04 05:58:37;;;;;;;62.92;30.67;;;1.30;99.90;;;;;;5008556;28;20552;-80
2023/03/04 06:01:04;;;;;;;59.35;31.75;;;1.30;99.90;;;;;;5020789;28;20078;-78
2023/03/04 06:03:31;;;;;;;59.72;30.35;;;1.30;99.90;;;;;;5008005;28;20054;-79
2023/03/04 06:05:58;;;;;;;63.08;30.13;;;1.20;99.90;;;;;;5017808;28;20133;-80
2023/03/04 06:08:26;;;;;;;53.53;30.15;;;1.20;99.90;;;;;;5006321;28;20058;-79
2023/03/04 06:10:55;;;;;;;63.50;32.40;;;1.20;99.90;;;;;;5018211;28;20073;-80
2023/03/04 06:13:22;;;;;;;59.72;31.17;;;1.20;99.90;;;;;;5012018;28;20473;-80
2023/03/04 06:15:55;;;;;;;72.80;32.88;;;1.10;99.90;;;;;;5007124;28;20042;-80
2023/03/04 06:18:23;;;;;;;66.30;33.45;;;1.20;99.90;;;;;;5008124;28;20513;-79
2023/03/04 06:20:50;;;;;;;65.32;32.95;;;1.20;99.90;;;;;;5006377;28;20367;-79
2023/03/04 06:23:16;;;;;;;58.53;30.30;;;1.20;99.90;;;;;;5009861;28;20117;-79
2023/03/04 06:25:43;;;;;;;58.30;29.65;;;1.20;99.90;;;;;;5006206;28;20050;-80
2023/03/04 06:28:10;;;;;;;60.42;29.90;;;1.10;99.90;;;;;;5010147;28;20057;-80
2023/03/04 06:30:37;;;;;;;63.75;30.67;;;1.10;99.90;;;;;;5023081;28;20129;-79
2023/03/04 06:33:03;;;;;;;65.40;31.60;;;1.10;99.90;;;;;;5004351;28;20046;-80
2023/03/04 06:35:30;;;;;;;61.80;29.42;;;1.10;99.90;;;;;;5007559;28;20046;-80
2023/03/04 06:37:56;;;;;;;60.67;29.35;;;1.10;99.90;;;;;;5007785;28;20046;-80
2023/03/04 06:40:23;;;;;;;66.40;32.38;;;1.10;99.90;;;;;;5007146;28;20081;-79
2023/03/04 06:42:50;;;;;;;65.18;32.10;;;1.10;99.90;;;;;;5001449;28;20054;-80
2023/03/04 06:45:16;;;;;;;64.72;33.10;;;1.10;99.90;;;;;;5007400;28;20509;-80
2023/03/04 06:47:43;;;;;;;67.25;32.30;;;1.10;99.90;;;;;;5004973;28;20053;-80
2023/03/04 06:50:11;;;;;;;67.00;34.15;;;1.10;99.90;;;;;;5009000;28;20437;-80
2023/03/04 06:52:39;;;;;;;67.88;32.92;;;1.10;99.90;;;;;;5004248;28;20489;-80
2023/03/04 06:55:07;;;;;;;68.18;32.40;;;1.10;99.90;;;;;;5018601;28;20108;-79
2023/03/04 06:57:34;;;;;;;68.50;32.63;;;1.10;99.90;;;;;;5027439;28;20113;-78
2023/03/04 07:00:02;;;;;;;64.28;32.15;;;1.10;99.90;;;;;;5017506;28;20052;-80
2023/03/04 07:02:29;;;;;;;60.58;31.73;;;1.10;99.90;;;;;;5018442;28;20076;-78
2023/03/04 07:04:55;;;;;;;63.63;31.38;;;1.20;99.90;;;;;;5017143;28;20132;-78
2023/03/04 07:07:22;;;;;;;73.47;33.08;;;1.20;99.90;;;;;;5015329;28;20695;-80
2023/03/04 07:09:49;;;;;;;63.15;33.08;;;1.20;99.90;;;;;;5004339;28;20517;-80
2023/03/04 07:12:15;;;;;;;66.72;32.88;;;1.20;99.90;;;;;;5008521;28;20490;-79
2023/03/04 07:14:42;;;;;;;64.65;32.15;;;1.20;99.90;;;;;;5003654;28;20054;-80
2023/03/04 07:17:09;;;;;;;70.25;33.78;;;1.20;99.90;;;;;;5005959;28;20042;-79
2023/03/04 07:19:35;;;;;;;66.80;32.15;;;1.20;99.90;;;;;;5003601;28;20072;-80
2023/03/04 07:22:02;;;;;;;64.15;33.55;;;1.30;99.90;;;;;;5007670;28;20057;-81
2023/03/04 07:24:29;;;;;;;67.57;33.72;;;1.30;99.90;;;;;;5004250;28;20065;-80
2023/03/04 07:26:55;;;;;;;66.35;32.45;;;1.30;99.90;;;;;;5001043;28;20046;-81
2023/03/04 07:29:22;;;;;;;64.88;33.20;;;1.30;99.90;;;;;;5003346;28;20058;-80
2023/03/04 07:31:49;;;;;;;69.70;34.72;;;1.40;99.90;;;;;;5005909;28;20129;-80
2023/03/04 07:34:19;;;;;;;;;;;1.30;99.90;;;;;;5003443;28;20073;-81
2023/03/04 07:36:45;;;;;;;75.07;36.13;;;1.40;99.90;;;;;;5003891;28;19928;-80
2023/03/04 07:39:12;;;;;;;73.15;36.20;;;1.40;99.90;;;;;;5011125;28;20050;-80
2023/03/04 07:41:39;;;;;;;75.20;36.97;;;1.40;99.90;;;;;;5009643;28;20465;-80
2023/03/04 07:44:07;;;;;;;74.20;36.78;;;1.50;99.90;;;;;;5007380;28;20061;-80
2023/03/04 07:46:34;;;;;;;80.03;37.33;;;1.50;99.90;;;;;;4998732;28;20058;-80
2023/03/04 07:49:01;;;;;;;68.38;35.72;;;1.50;99.90;;;;;;5008526;28;20054;-80
2023/03/04 07:51:28;;;;;;;70.00;36.92;;;1.60;99.90;;;;;;5001233;28;20061;-80
2023/03/04 07:53:58;;;;;;;61.72;34.92;;;1.60;99.90;;;;;;5003231;28;20045;-81
2023/03/04 07:56:28;;;;;;;64.65;35.03;;;1.70;99.90;;;;;;5012273;28;20064;-80
2023/03/04 07:58:55;;;;;;;;;;;1.70;99.90;;;;;;5003504;28;20133;-81
2023/03/04 08:01:36;;;;;;;76.45;37.42;;;1.70;99.90;;;;;;5002535;28;19926;-80
2023/03/04 08:04:05;;;;;;;75.57;38.65;;;1.80;99.90;;;;;;5011927;28;20053;-80
2023/03/04 08:06:32;;;;;;;66.68;32.35;;;1.80;99.90;;;;;;5002501;28;20089;-80
2023/03/04 08:09:05;;;;;;;52.35;26.70;;;1.90;99.90;;;;;;5023939;28;20433;-80
2023/03/04 08:11:33;;;;;;;54.40;28.05;;;1.80;99.90;;;;;;5003482;28;20419;-81
2023/03/04 08:14:00;;;;;;;63.03;28.75;;;1.80;99.90;;;;;;5001413;28;20052;-80
2023/03/04 08:16:27;;;;;;;60.03;29.95;;;1.80;99.90;;;;;;5002494;28;20577;-81
2023/03/04 08:18:56;;;;;;;59.03;28.55;;;1.80;99.90;;;;;;5003933;28;20038;-80
2023/03/04 08:21:24;;;;;;;70.07;30.70;;;1.80;99.90;;;;;;5006892;28;20046;-80
2023/03/04 08:23:51;;;;;;;57.10;28.27;;;1.80;99.90;;;;;;5008219;28;20058;-79
2023/03/04 08:26:32;;;;;;;57.60;28.98;;;1.80;99.90;;;;;;5007219;28;20149;-80
2023/03/04 08:29:02;;;;;;;63.88;29.50;;;1.80;99.90;;;;;;4998950;28;20054;-80
2023/03/04 08:31:29;;;;;;;54.92;28.40;;;1.80;99.90;;;;;;5021786;28;20046;-81
2023/03/04 08:33:56;;;;;;;60.63;29.98;;;1.80;99.90;;;;;;5005644;28;20046;-79
2023/03/04 08:36:23;;;;;;;61.78;30.58;;;1.90;99.90;;;;;;5019302;28;20054;-80
2023/03/04 08:38:49;;;;;;;56.45;30.55;;;1.90;99.90;;;;;;5002947;28;20049;-80
2023/03/04 08:41:16;;;;;;;58.97;29.13;;;2.00;99.90;;;;;;5001246;28;20042;-82
2023/03/04 08:43:43;;;;;;;67.90;30.25;;;2.10;99.90;;;;;;5004256;28;20066;-79
2023/03/04 08:46:10;;;;;;;60.75;29.65;;;2.10;99.90;;;;;;5006027;28;20061;-80
2023/03/04 08:48:37;;;;;;;67.72;32.53;;;2.20;99.90;;;;;;5001991;28;20129;-80
2023/03/04 08:51:09;;;;;;;69.15;33.50;;;2.20;99.90;;;;;;5017200;28;20049;-81
2023/03/04 08:53:36;;;;;;;72.72;33.60;;;2.40;99.90;;;;;;5004510;28;21003;-80
2023/03/04 08:56:04;;;;;;;64.35;32.17;;;2.50;99.90;;;;;;5002599;28;20050;-80
2023/03/04 08:58:31;;;;;;;63.55;32.58;;;2.50;99.90;;;;;;5007979;28;20050;-79
2023/03/04 09:00:59;;;;;;;70.35;34.28;;;2.70;99.90;;;;;;5016308;28;20050;-80
2023/03/04 09:03:27;;;;;;;63.78;33.45;;;2.80;99.90;;;;;;5005003;28;20129;-80
2023/03/04 09:05:54;;;;;;;64.07;31.23;;;2.90;99.90;;;;;;5006957;28;20053;-80
2023/03/04 09:08:22;;;;;;;65.88;32.95;;;3.00;99.90;;;;;;5007805;28;20537;-80
2023/03/04 09:10:52;;;;;;;67.93;31.92;;;3.10;99.90;;;;;;5008849;28;20077;-80
2023/03/04 09:13:19;;;;;;;67.18;33.72;;;2.80;99.90;;;;;;5001666;28;20047;-80
2023/03/04 09:15:48;;;;;;;63.90;32.65;;;2.70;99.90;;;;;;5006377;28;20052;-80
2023/03/04 09:18:16;;;;;;;77.18;35.92;;;2.80;99.90;;;;;;5001592;28;20054;-80
2023/03/04 09:20:44;;;;;;;63.88;33.10;;;3.00;99.90;;;;;;5022170;28;20081;-80
2023/03/04 09:23:11;;;;;;;74.13;34.55;;;3.10;99.90;;;;;;5000794;28;20546;-80
2023/03/04 09:25:38;;;;;;;65.00;32.90;;;3.20;99.90;;;;;;5006290;28;20045;-80
2023/03/04 09:28:06;;;;;;;72.95;35.47;;;3.20;99.90;;;;;;5012499;28;20050;-80
2023/03/04 09:30:34;;;;;;;72.22;36.10;;;3.30;99.90;;;;;;5002623;28;20069;-80
2023/03/04 09:33:01;;;;;;;73.70;34.70;;;3.30;99.90;;;;;;5004118;28;20525;-80
2023/03/04 09:35:28;;;;;;;67.35;33.05;;;3.30;99.90;;;;;;5008538;28;20046;-79
2023/03/04 09:37:56;;;;;;;77.25;35.42;;;3.40;99.90;;;;;;5007389;28;20050;-80
2023/03/04 09:40:36;;;;;;;68.25;35.78;;;3.40;99.90;;;;;;5013890;28;20067;-80
2023/03/04 09:43:05;;;;;;;71.78;34.97;;;3.40;99.90;;;;;;5012653;28;20137;-81
2023/03/04 09:45:40;;;;;;;64.97;31.15;;;3.40;99.90;;;;;;5010173;28;20050;-80
2023/03/04 09:48:11;;;;;;;67.72;33.83;;;3.40;99.90;;;;;;5009399;28;20052;-79
2023/03/04 09:50:45;;;;;;;68.35;35.75;;;3.50;99.90;;;;;;5008341;28;20045;-78
2023/03/04 09:53:23;;;;;;;74.60;35.40;;;3.50;99.90;;;;;;5007780;28;20134;-80
2023/03/04 09:55:51;;;;;;;71.70;33.50;;;3.50;99.90;;;;;;5006261;28;20053;-81
2023/03/04 09:58:43;;;;;;;70.72;34.00;;;3.60;99.90;;;;;;5026907;28;20050;-80
2023/03/04 10:01:24;;;;;;;70.93;33.85;;;3.60;99.90;;;;;;5031485;23;20050;-79
2023/03/04 10:03:58;;;;;;;68.75;32.97;;;3.60;99.90;;;;;;5013581;28;20042;-78
2023/03/04 10:06:26;;;;;;;70.10;33.83;;;3.60;99.90;;;;;;5029171;28;20054;-80
2023/03/04 10:09:03;;;;;;;68.47;33.50;;;3.70;99.90;;;;;;5013795;28;20046;-79
2023/03/04 10:11:47;;;;;;;77.32;34.45;;;3.50;99.90;;;;;;5012252;28;20054;-79
2023/03/04 10:14:19;;;;;;;69.53;35.15;;;3.40;99.90;;;;;;5012510;28;20050;-80
2023/03/04 10:17:04;;;;;;;70.55;33.33;;;3.50;99.90;;;;;;5017030;28;20046;-79
2023/03/04 10:19:43;;;;;;;74.22;33.88;;;3.40;99.90;;;;;;5013452;28;20042;-78
2023/03/04 10:22:36;;;;;;;68.82;32.78;;;3.40;99.90;;;;;;5010615;28;20103;-79
2023/03/04 10:25:41;;;;;;;73.22;32.92;;;3.40;99.90;;;;;;5013043;28;20056;-79
2023/03/04 10:28:20;;;;;;;72.45;35.42;;;3.30;99.90;;;;;;5012443;28;20058;-79
2023/03/04 10:31:01;;;;;;;75.80;34.45;;;3.40;99.90;;;;;;5006322;28;20440;-80
2023/03/04 10:33:31;;;;;;;63.63;31.25;;;3.30;99.90;;;;;;5028517;28;20104;-80
2023/03/04 10:36:09;;;;;;;77.38;35.72;;;3.40;99.90;;;;;;5021556;28;20441;-80
2023/03/04 10:38:40;;;;;;;67.60;32.90;;;3.50;99.90;;;;;;5034944;28;20056;-79
2023/03/04 10:41:15;;;;;;;69.15;33.40;;;3.60;99.90;;;;;;5014199;28;20091;-81
2023/03/04 10:43:45;;;;;;;57.92;30.55;;;3.70;99.90;;;;;;5013028;28;20409;-80
2023/03/04 10:46:14;;;;;;;74.05;32.72;;;3.60;99.90;;;;;;5010733;28;20070;-80
2023/03/04 10:48:43;;;;;;;66.07;28.75;;;3.60;99.90;;;;;;5009227;28;20141;-80
2023/03/04 10:51:22;;;;;;;76.20;34.90;;;3.50;99.90;;;;;;5015711;28;20060;-80
2023/03/04 10:53:55;;;;;;;72.47;33.78;;;3.40;99.90;;;;;;5012642;28;20054;-80
2023/03/04 10:57:11;;;;;;;66.78;33.42;;;3.40;99.90;;;;;;5017459;28;20519;-80
2023/03/04 10:59:52;;;;;;;74.68;32.25;;;3.40;99.90;;;;;;4998320;28;20048;-80
2023/03/04 11:02:28;;;;;;;69.80;33.28;;;3.30;99.90;;;;;;5027238;28;20080;-80
2023/03/04 11:05:16;;;;;;;70.43;33.72;;;3.30;99.90;;;;;;5017307;28;20108;-80
2023/03/04 11:07:52;;;;;;;69.50;32.90;;;3.20;99.90;;;;;;5011125;28;20129;-79
2023/03/04 11:10:35;;;;;;;73.63;35.00;;;3.10;99.90;;;;;;5015814;28;20081;-79
2023/03/04 11:13:16;;;;;;;63.25;30.77;;;3.10;99.90;;;;;;5012947;28;20049;-80
2023/03/04 11:15:46;;;;;;;68.13;32.28;;;3.20;99.90;;;;;;5014635;28;20414;-80
2023/03/04 11:18:13;;;;;;;69.88;31.92;;;3.10;99.90;;;;;;5014493;28;20049;-80
2023/03/04 11:20:45;;;;;;;68.90;33.30;;;3.10;99.90;;;;;;5015983;28;20053;-79
2023/03/04 11:23:16;;;;;;;67.47;32.05;;;3.10;99.90;;;;;;5024310;28;20579;-81
2023/03/04 11:25:48;;;;;;;64.45;32.38;;;3.20;99.90;;;;;;5026973;28;20054;-82
2023/03/04 11:28:21;;;;;;;73.43;33.10;;;3.20;99.90;;;;;;5028122;28;20056;-82
2023/03/04 11:31:04;;;;;;;67.40;32.95;;;3.20;99.90;;;;;;5029801;28;20065;-82
2023/03/04 11:33:52;;;;;;;65.68;31.98;;;3.30;99.90;;;;;;5031909;28;20149;-82
2023/03/04 11:36:39;;;;;;;68.70;32.85;;;3.30;99.90;;;;;;5025039;28;20046;-81
2023/03/04 11:39:21;;;;;;;70.43;32.28;;;3.40;99.90;;;;;;5027269;28;20046;-80
2023/03/04 11:41:57;;;;;;;65.35;29.98;;;3.40;99.90;;;;;;5022995;28;20046;-79
2023/03/04 11:44:24;;;;;;;60.35;29.00;;;3.40;99.90;;;;;;5018439;28;21529;-79
2023/03/04 11:47:10;;;;;;;59.65;27.80;;;3.40;99.90;;;;;;5020990;28;20050;-79
2023/03/04 11:50:02;;;;;;;58.28;28.75;;;3.40;99.90;;;;;;5019579;28;20131;-79
2023/03/04 11:52:41;;;;;;;54.20;28.25;;;3.50;99.90;;;;;;5015910;28;20505;-81
2023/03/04 11:55:07;;;;;;;56.15;28.42;;;3.60;99.90;;;;;;5013972;28;20413;-81
2023/03/04 11:57:51;;;;;;;55.22;26.50;;;3.60;99.90;;;;;;5015345;28;20524;-80
2023/03/04 12:00:56;;;;;;;53.10;24.67;;;3.70;99.90;;;;;;5018740;28;20501;-80
2023/03/04 12:03:57;;;;;;;50.63;25.40;;;3.80;99.90;;;;;;5012473;28;20042;-80
2023/03/04 12:06:49;;;;;;;48.58;26.55;;;3.90;99.90;;;;;;5017074;28;20065;-80
2023/03/04 12:09:21;;;;;;;56.88;26.70;;;3.90;99.90;;;;;;5018886;28;20048;-80
2023/03/04 12:12:10;;;;;;;43.22;21.38;;;4.00;99.90;;;;;;5010214;28;20041;-80
2023/03/04 12:15:22;;;;;;;51.40;24.40;;;4.10;99.90;;;;;;5013452;28;20049;-79
2023/03/04 12:18:18;;;;;;;45.95;23.38;;;4.00;99.90;;;;;;4951286;28;20523;-80
2023/03/04 12:20:58;;;;;;;50.58;24.48;;;4.10;99.90;;;;;;5013205;28;20050;-80
2023/03/04 12:23:47;;;;;;;49.53;26.00;;;4.20;99.90;;;;;;5013057;28;20046;-80
2023/03/04 12:26:55;;;;;;;47.45;22.90;;;4.20;99.90;;;;;;5016196;28;20042;-79
2023/03/04 12:29:30;;;;;;;44.90;22.60;;;4.20;99.90;;;;;;5001540;28;20049;-81
2023/03/04 12:32:19;;;;;;;46.38;23.02;;;4.20;99.90;;;;;;5020320;28;20564;-80
2023/03/04 12:35:00;;;;;;;48.25;23.33;;;4.30;99.90;;;;;;5029331;28;20119;-80
2023/03/04 12:37:53;;;;;;;45.85;25.60;;;4.30;99.90;;;;;;5017272;28;20048;-82
2023/03/04 12:40:31;;;;;;;51.13;25.58;;;4.30;99.90;;;;;;5014052;28;20046;-80
2023/03/04 12:43:25;;;;;;;49.95;25.42;;;4.30;99.90;;;;;;5013928;28;20044;-80
2023/03/04 12:46:18;;;;;;;51.35;26.20;;;4.40;99.90;;;;;;5016607;28;20053;-81
2023/03/04 12:48:51;;;;;;;51.67;26.67;;;4.40;99.90;;;;;;5013935;28;20046;-80
2023/03/04 12:51:30;;;;;;;48.58;26.00;;;4.50;99.90;;;;;;5020214;28;20073;-80
2023/03/04 12:54:17;;;;;;;53.42;27.50;;;4.50;99.90;;;;;;5014682;28;20434;-80
2023/03/04 12:57:01;;;;;;;51.63;26.65;;;4.60;99.90;;;;;;5021603;28;20131;-81